Time;durP1;ratioP1;P1;durP2;ratioP2;P2;SDS_P1;SDS_P2;PMS_P1;PMS_P2;Temp;Humidity;BMP_temperature;BMP_pressure;BME280_temperature;BME280_humidity;BME280_pressure;Samples;Min_cycle;Max_cycle;Signal;HPM_P1;HPM_P2
2022/08/08 00:00:38;;;;;;;0.40;0.40;;;16.20;95.50;;;;;;5092918;28;20200;-67
2022/08/08 00:03:59;;;;;;;0.40;0.40;;;16.10;96.10;;;;;;5093558;28;20196;-67
2022/08/08 00:06:57;;;;;;;0.40;0.40;;;16.10;96.50;;;;;;5093315;28;20215;-68
2022/08/08 00:10:06;;;;;;;0.40;0.40;;;16.20;97.10;;;;;;5092802;28;20200;-67
2022/08/08 00:13:08;;;;;;;0.40;0.40;;;16.00;97.70;;;;;;5093409;28;20274;-68
2022/08/08 00:16:02;;;;;;;0.40;0.40;;;15.90;98.40;;;;;;5093173;28;20219;-67
2022/08/08 00:18:59;;;;;;;0.40;0.40;;;15.90;99.00;;;;;;5093867;28;20220;-67
2022/08/08 00:21:51;;;;;;;0.40;0.40;;;15.70;99.30;;;;;;5093476;28;20203;-67
2022/08/08 00:24:44;;;;;;;0.40;0.40;;;15.80;99.90;;;;;;5093544;28;20203;-67
2022/08/08 00:27:34;;;;;;;0.40;0.40;;;15.80;99.90;;;;;;5093209;28;20216;-67
2022/08/08 00:30:30;;;;;;;0.40;0.40;;;15.90;99.90;;;;;;5092340;28;20215;-67
2022/08/08 00:33:21;;;;;;;0.40;0.40;;;15.70;99.90;;;;;;5093399;28;20200;-67
2022/08/08 00:36:23;;;;;;;0.40;0.40;;;15.70;99.90;;;;;;5091476;28;20236;-67
2022/08/08 00:39:17;;;;;;;0.40;0.40;;;15.70;99.90;;;;;;5092947;28;20199;-67
2022/08/08 00:42:46;;;;;;;0.40;0.40;;;15.70;99.90;;;;;;5092920;28;20592;-67
2022/08/08 00:46:03;;;;;;;0.40;0.40;;;15.70;99.90;;;;;;5092846;28;20214;-67
2022/08/08 00:49:29;;;;;;;0.40;0.40;;;15.60;99.90;;;;;;5092666;28;20554;-68
2022/08/08 00:52:37;;;;;;;0.40;0.40;;;15.60;99.90;;;;;;5073445;28;20223;-67
2022/08/08 00:56:05;;;;;;;0.40;0.40;;;15.50;99.90;;;;;;5096369;28;20195;-67
2022/08/08 00:59:44;;;;;;;0.40;0.40;;;15.40;99.90;;;;;;5095829;28;20199;-68
2022/08/08 01:03:18;;;;;;;0.40;0.40;;;15.30;99.90;;;;;;5097664;28;20570;-67
2022/08/08 01:07:03;;;;;;;0.40;0.40;;;15.30;99.90;;;;;;5096218;28;20731;-67
2022/08/08 01:10:49;;;;;;;0.40;0.40;;;15.20;99.90;;;;;;5095709;28;20287;-67
2022/08/08 01:14:13;;;;;;;0.40;0.40;;;15.10;99.90;;;;;;5095783;28;20196;-67
2022/08/08 01:17:33;;;;;;;0.40;0.40;;;15.10;99.90;;;;;;5096875;28;20220;-67
2022/08/08 01:20:55;;;;;;;0.40;0.40;;;15.10;99.90;;;;;;5095742;28;20196;-67
2022/08/08 01:24:28;;;;;;;0.40;0.40;;;15.10;99.90;;;;;;5096081;28;20199;-67
2022/08/08 01:27:50;;;;;;;0.40;0.40;;;15.00;99.90;;;;;;5095814;28;20212;-68
2022/08/08 01:31:25;;;;;;;0.40;0.40;;;15.00;99.90;;;;;;5095530;28;20696;-67
2022/08/08 01:35:00;;;;;;;0.40;0.40;;;14.90;99.90;;;;;;5095596;28;20200;-67
2022/08/08 01:38:13;;;;;;;0.40;0.40;;;14.80;99.90;;;;;;5095174;28;20279;-67
2022/08/08 01:41:12;;;;;;;0.40;0.40;;;14.90;99.90;;;;;;5095109;28;20203;-67
2022/08/08 01:44:20;;;;;;;0.40;0.40;;;14.80;99.90;;;;;;5095653;28;20195;-67
2022/08/08 01:47:19;;;;;;;0.40;0.40;;;14.80;99.90;;;;;;5095383;28;20224;-67
2022/08/08 01:50:39;;;;;;;0.40;0.40;;;14.80;99.90;;;;;;5095656;28;20203;-67
2022/08/08 01:53:45;;;;;;;0.40;0.40;;;14.70;99.90;;;;;;5095354;28;20191;-67
2022/08/08 01:57:08;;;;;;;0.50;0.50;;;14.70;99.90;;;;;;5093032;28;20216;-67
2022/08/08 02:00:13;;;;;;;0.40;0.40;;;14.70;99.90;;;;;;5095816;28;20584;-67
2022/08/08 02:03:18;;;;;;;0.40;0.40;;;14.60;99.90;;;;;;5075363;28;20262;-67
2022/08/08 02:06:50;;;;;;;0.40;0.40;;;14.60;99.90;;;;;;5076587;28;20455;-67
2022/08/08 02:09:50;;;;;;;0.40;0.40;;;14.50;99.90;;;;;;5075689;28;20254;-67
2022/08/08 02:13:02;;;;;;;0.40;0.40;;;14.50;99.90;;;;;;5074999;28;20248;-68
2022/08/08 02:16:01;;;;;;;0.50;0.50;;;14.50;99.90;;;;;;5074802;28;20427;-68
2022/08/08 02:18:58;;;;;;;0.40;0.40;;;14.50;99.90;;;;;;5074849;28;20443;-67
2022/08/08 02:25:15;;;;;;;0.40;0.40;;;14.40;99.90;;;;;;5075292;28;20225;-67
2022/08/08 02:28:09;;;;;;;0.40;0.40;;;14.40;99.90;;;;;;5077784;28;20451;-67
2022/08/08 02:31:03;;;;;;;0.40;0.40;;;14.40;99.90;;;;;;5075401;28;20200;-67
2022/08/08 02:34:31;;;;;;;0.40;0.40;;;14.40;99.90;;;;;;5074452;28;20451;-67
2022/08/08 02:37:33;;;;;;;0.40;0.40;;;14.40;99.90;;;;;;5075235;28;20443;-67
2022/08/08 02:40:47;;;;;;;0.40;0.40;;;14.30;99.90;;;;;;5075050;28;20439;-68
2022/08/08 02:44:13;;;;;;;0.40;0.40;;;14.30;99.90;;;;;;5074894;28;20200;-67
2022/08/08 02:47:58;;;;;;;0.40;0.40;;;14.30;99.90;;;;;;5074474;28;20514;-67
2022/08/08 02:51:23;;;;;;;0.40;0.40;;;14.30;99.90;;;;;;5074461;28;20739;-67
2022/08/08 02:54:50;;;;;;;0.40;0.40;;;14.20;99.90;;;;;;5075238;28;20228;-67
2022/08/08 02:58:14;;;;;;;0.40;0.40;;;14.20;99.90;;;;;;5073105;28;20477;-68
2022/08/08 03:01:45;;;;;;;0.40;0.40;;;14.20;99.90;;;;;;5072510;28;20445;-68
2022/08/08 03:05:34;;;;;;;0.40;0.40;;;14.10;99.90;;;;;;5094193;28;20996;-68
2022/08/08 03:09:36;;;;;;;0.40;0.40;;;14.10;99.90;;;;;;5093894;28;20477;-68
2022/08/08 03:13:09;;;;;;;0.40;0.40;;;14.10;99.90;;;;;;5093641;28;20499;-69
2022/08/08 03:16:28;;;;;;;0.40;0.40;;;14.00;99.90;;;;;;5080820;28;20478;-68
2022/08/08 03:19:59;;;;;;;0.40;0.40;;;14.00;99.90;;;;;;5092888;28;20207;-68
2022/08/08 03:22:54;;;;;;;0.40;0.40;;;13.90;99.90;;;;;;5093775;28;20837;-68
2022/08/08 03:25:46;;;;;;;0.40;0.40;;;13.80;99.90;;;;;;5092314;28;20414;-68
2022/08/08 03:28:43;;;;;;;0.40;0.40;;;13.80;99.90;;;;;;5092265;28;20450;-68
2022/08/08 03:34:56;;;;;;;0.40;0.40;;;13.80;99.90;;;;;;5093988;28;20805;-67
2022/08/08 03:37:45;;;;;;;0.40;0.40;;;13.70;99.90;;;;;;5094990;28;20434;-67
2022/08/08 03:40:55;;;;;;;0.40;0.40;;;13.70;99.90;;;;;;5093503;28;20448;-67
2022/08/08 03:43:54;;;;;;;0.40;0.40;;;13.60;99.90;;;;;;5093452;28;20418;-67
2022/08/08 03:46:47;;;;;;;0.40;0.40;;;13.60;99.90;;;;;;5093513;28;20425;-66
2022/08/08 03:49:36;;;;;;;0.40;0.40;;;13.60;99.90;;;;;;5093181;28;20426;-67
2022/08/08 03:52:44;;;;;;;0.40;0.40;;;13.60;99.90;;;;;;5092944;28;20497;-67
2022/08/08 03:55:38;;;;;;;0.40;0.40;;;13.60;99.90;;;;;;5092928;28;20557;-67
2022/08/08 03:58:51;;;;;;;0.40;0.40;;;13.60;99.90;;;;;;5092559;28;20818;-66
2022/08/08 04:01:41;;;;;;;0.40;0.40;;;13.70;99.90;;;;;;5094979;28;20422;-67
2022/08/08 04:04:49;;;;;;;0.40;0.40;;;13.60;99.90;;;;;;5093236;28;20430;-67
2022/08/08 04:07:38;;;;;;;0.40;0.40;;;13.60;99.90;;;;;;5092637;28;20446;-67
2022/08/08 04:10:27;;;;;;;0.40;0.40;;;13.60;99.90;;;;;;5094153;28;20912;-66
2022/08/08 04:13:20;;;;;;;0.40;0.40;;;13.60;99.90;;;;;;5095301;28;20574;-67
2022/08/08 04:16:11;;;;;;;0.40;0.40;;;13.60;99.90;;;;;;5094927;27;20418;-68
2022/08/08 04:19:05;;;;;;;0.40;0.40;;;13.60;99.90;;;;;;5093799;28;20422;-68
2022/08/08 04:22:11;;;;;;;0.40;0.40;;;13.60;99.90;;;;;;5094459;28;20462;-67
2022/08/08 04:25:05;;;;;;;0.40;0.40;;;13.60;99.90;;;;;;5093599;28;20471;-68
2022/08/08 04:27:54;;;;;;;0.40;0.40;;;13.70;99.90;;;;;;5096502;28;20438;-68
2022/08/08 04:31:02;;;;;;;0.40;0.40;;;13.70;99.90;;;;;;5098346;28;20424;-68
2022/08/08 04:33:54;;;;;;;0.40;0.40;;;13.70;99.90;;;;;;5098506;28;20791;-68
2022/08/08 04:36:42;;;;;;;0.50;0.50;;;13.90;99.90;;;;;;5097876;28;20426;-68
2022/08/08 04:39:33;;;;;;;0.40;0.40;;;13.90;99.90;;;;;;5097805;28;20505;-68
2022/08/08 04:42:41;;;;;;;0.40;0.40;;;13.90;99.90;;;;;;5098328;28;20468;-68
2022/08/08 04:45:43;;;;;;;0.40;0.40;;;14.00;99.90;;;;;;5098369;28;20934;-68
2022/08/08 04:48:33;;;;;;;0.40;0.40;;;14.00;99.90;;;;;;5097765;28;20791;-68
2022/08/08 04:51:22;;;;;;;0.40;0.40;;;14.10;99.90;;;;;;5097119;28;20422;-68
2022/08/08 04:54:30;;;;;;;0.40;0.40;;;14.20;99.90;;;;;;5097498;28;20418;-67
2022/08/08 04:57:29;;;;;;;0.40;0.40;;;14.20;99.90;;;;;;5097869;28;20442;-68
2022/08/08 05:00:18;;;;;;;0.40;0.40;;;14.30;99.90;;;;;;5097632;28;20587;-68
2022/08/08 05:03:08;;;;;;;0.40;0.40;;;14.30;99.90;;;;;;5078059;28;20462;-68
2022/08/08 05:05:59;;;;;;;0.40;0.40;;;14.40;99.90;;;;;;5075794;28;20430;-68
2022/08/08 05:09:02;;;;;;;0.40;0.40;;;14.50;99.90;;;;;;5077240;28;20427;-68
2022/08/08 05:11:53;;;;;;;0.40;0.40;;;14.60;99.90;;;;;;5076639;28;20456;-68
2022/08/08 05:14:44;;;;;;;0.40;0.40;;;14.70;99.90;;;;;;5075768;28;20193;-68
2022/08/08 05:17:35;;;;;;;0.40;0.40;;;14.80;99.90;;;;;;5076682;28;20490;-68
2022/08/08 05:20:41;;;;;;;0.40;0.40;;;14.90;99.90;;;;;;5077268;28;20200;-68
2022/08/08 05:23:39;;;;;;;0.40;0.40;;;15.00;99.90;;;;;;5076049;28;20216;-68
2022/08/08 05:26:34;;;;;;;0.40;0.40;;;15.10;99.90;;;;;;5077802;28;20472;-68
2022/08/08 05:29:22;;;;;;;0.40;0.40;;;15.20;99.90;;;;;;5076544;28;20200;-69
2022/08/08 05:32:10;;;;;;;0.40;0.40;;;15.30;99.90;;;;;;5075963;28;20203;-68
2022/08/08 05:35:00;;;;;;;0.40;0.40;;;15.40;99.90;;;;;;5075341;28;20196;-68
2022/08/08 05:37:54;;;;;;;0.40;0.40;;;15.50;99.90;;;;;;5075483;28;20529;-68
2022/08/08 05:40:47;;;;;;;0.40;0.40;;;15.60;99.90;;;;;;5074585;28;20276;-68
2022/08/08 05:43:43;;;;;;;0.40;0.40;;;15.70;99.90;;;;;;5075147;28;20739;-68
2022/08/08 05:46:53;;;;;;;0.40;0.40;;;15.90;99.90;;;;;;5075347;28;20217;-68
2022/08/08 05:49:50;;;;;;;0.40;0.40;;;16.00;99.90;;;;;;5075676;28;20258;-68
2022/08/08 05:52:42;;;;;;;0.40;0.40;;;16.10;99.90;;;;;;5075341;28;20607;-68
2022/08/08 05:55:34;;;;;;;0.40;0.40;;;16.30;99.90;;;;;;5074880;28;20209;-68
2022/08/08 05:58:45;;;;;;;0.40;0.40;;;16.40;99.90;;;;;;5075398;28;20303;-68
2022/08/08 06:01:54;;;;;;;0.40;0.40;;;16.40;99.90;;;;;;5086427;28;20199;-68
2022/08/08 06:04:53;;;;;;;0.40;0.40;;;16.70;99.90;;;;;;5095340;28;20699;-68
2022/08/08 06:07:42;;;;;;;0.40;0.40;;;16.70;99.90;;;;;;5111428;22;20319;-68
2022/08/08 06:10:34;;;;;;;0.40;0.40;;;16.70;99.90;;;;;;5074804;28;20222;-68
2022/08/08 06:13:28;;;;;;;0.50;0.50;;;16.80;99.90;;;;;;5075047;28;20197;-68
2022/08/08 06:16:24;;;;;;;0.40;0.40;;;16.90;99.90;;;;;;5074501;28;20193;-66
2022/08/08 06:19:19;;;;;;;0.40;0.40;;;17.00;99.90;;;;;;5053592;28;20201;-68
2022/08/08 06:22:11;;;;;;;0.40;0.40;;;17.00;99.90;;;;;;5054283;28;20204;-68
2022/08/08 06:25:19;;;;;;;0.40;0.40;;;17.10;99.90;;;;;;5035070;28;20596;-67
2022/08/08 06:28:30;;;;;;;0.40;0.40;;;17.20;99.90;;;;;;5050557;28;20299;-67
2022/08/08 06:31:21;;;;;;;0.40;0.40;;;17.40;99.90;;;;;;5051024;28;20666;-67
2022/08/08 06:34:36;;;;;;;0.40;0.40;;;17.40;99.90;;;;;;5047187;28;20343;-68
2022/08/08 06:37:30;;;;;;;0.40;0.40;;;17.50;99.90;;;;;;5049944;28;20221;-68
2022/08/08 06:40:28;;;;;;;0.40;0.40;;;17.60;99.90;;;;;;5053072;28;20201;-68
2022/08/08 06:43:21;;;;;;;0.40;0.40;;;17.70;99.90;;;;;;5052756;28;20232;-67
2022/08/08 06:46:21;;;;;;;0.40;0.40;;;17.80;99.90;;;;;;5053621;28;20220;-68
2022/08/08 06:49:11;;;;;;;0.40;0.40;;;18.00;99.90;;;;;;5048931;28;20234;-67
2022/08/08 06:52:03;;;;;;;0.40;0.40;;;18.00;99.90;;;;;;5053216;28;20204;-68
2022/08/08 06:54:54;;;;;;;0.40;0.40;;;18.10;99.90;;;;;;5053721;28;20204;-68
2022/08/08 06:57:42;;;;;;;0.40;0.40;;;18.20;99.90;;;;;;5052560;28;20217;-69
2022/08/08 07:00:49;;;;;;;0.40;0.40;;;18.30;99.90;;;;;;5056044;28;20192;-68
2022/08/08 07:03:45;;;;;;;0.40;0.40;;;18.40;99.90;;;;;;5047348;28;20217;-67
2022/08/08 07:06:56;;;;;;;0.40;0.40;;;18.60;99.90;;;;;;5043815;28;20714;-68
2022/08/08 07:09:56;;;;;;;0.40;0.40;;;18.60;99.90;;;;;;5052382;28;20550;-68
2022/08/08 07:12:55;;;;;;;0.40;0.40;;;18.70;99.90;;;;;;5058703;28;20258;-66
2022/08/08 07:15:45;;;;;;;0.40;0.40;;;18.80;99.90;;;;;;5032971;28;20198;-68
2022/08/08 07:19:05;;;;;;;0.40;0.40;;;19.10;99.90;;;;;;5050302;28;20228;-69
2022/08/08 07:22:00;;;;;;;0.40;0.40;;;19.10;99.90;;;;;;5050824;28;20748;-67
2022/08/08 07:25:03;;;;;;;0.40;0.40;;;19.30;99.90;;;;;;5049940;28;20355;-68
2022/08/08 07:27:59;;;;;;;0.40;0.40;;;19.20;99.90;;;;;;5051740;28;20271;-67
2022/08/08 07:30:57;;;;;;;0.50;0.50;;;19.40;99.90;;;;;;5052882;28;20696;-69
2022/08/08 07:33:46;;;;;;;0.40;0.40;;;19.50;99.90;;;;;;5053504;28;20700;-67
2022/08/08 07:36:48;;;;;;;0.40;0.40;;;19.60;99.90;;;;;;5052971;28;20666;-68
2022/08/08 07:39:41;;;;;;;0.40;0.40;;;19.80;99.90;;;;;;5052521;28;20572;-69
2022/08/08 07:42:51;;;;;;;1.67;1.58;;;19.90;99.90;;;;;;5052198;28;20197;-69
2022/08/08 07:45:42;;;;;;;0.40;0.40;;;20.10;99.90;;;;;;5052632;28;20201;-69
2022/08/08 07:48:50;;;;;;;0.40;0.40;;;20.40;99.90;;;;;;5053659;28;20728;-67
2022/08/08 07:51:38;;;;;;;0.40;0.40;;;20.40;99.90;;;;;;5052892;28;20216;-66
2022/08/08 07:54:48;;;;;;;0.40;0.40;;;20.40;99.90;;;;;;5054480;28;20193;-68
2022/08/08 07:57:45;;;;;;;0.40;0.40;;;20.50;99.90;;;;;;5047092;28;20848;-67
2022/08/08 08:00:41;;;;;;;0.40;0.40;;;20.50;99.90;;;;;;5045592;28;20197;-68
2022/08/08 08:03:35;;;;;;;0.40;0.40;;;20.60;99.90;;;;;;5052575;28;20279;-67
2022/08/08 08:06:33;;;;;;;0.40;0.40;;;20.70;99.90;;;;;;5053608;28;20193;-66
2022/08/08 08:09:28;;;;;;;0.55;0.55;;;20.80;99.90;;;;;;5072261;28;20665;-68
2022/08/08 08:12:24;;;;;;;0.40;0.40;;;20.90;99.90;;;;;;5068449;28;20240;-69
2022/08/08 08:15:30;;;;;;;0.40;0.40;;;21.00;99.90;;;;;;5051850;28;20204;-69
2022/08/08 08:18:23;;;;;;;5.63;5.32;;;21.20;99.90;;;;;;5051188;28;20713;-66
2022/08/08 08:21:20;;;;;;;0.50;0.50;;;21.20;99.00;;;;;;5052587;28;20263;-68
2022/08/08 08:24:28;;;;;;;0.50;0.50;;;21.20;98.60;;;;;;5072376;28;20262;-67
2022/08/08 08:27:20;;;;;;;1.08;0.82;;;21.30;98.20;;;;;;5076942;28;20216;-67
2022/08/08 08:30:09;;;;;;;0.40;0.40;;;21.50;97.50;;;;;;5076964;28;20204;-67
2022/08/08 08:32:58;;;;;;;0.40;0.40;;;21.60;96.90;;;;;;5075089;28;20211;-67
2022/08/08 08:35:47;;;;;;;0.40;0.40;;;21.70;96.00;;;;;;5074928;28;20225;-69
2022/08/08 08:38:55;;;;;;;0.40;0.40;;;21.80;95.70;;;;;;5078916;28;20353;-65
2022/08/08 08:41:45;;;;;;;0.40;0.40;;;21.90;94.80;;;;;;5065915;28;20201;-67
2022/08/08 08:44:35;;;;;;;0.40;0.40;;;21.90;94.30;;;;;;5051478;28;20268;-68
2022/08/08 08:47:25;;;;;;;0.50;0.50;;;22.00;93.10;;;;;;5058038;28;20221;-68
2022/08/08 08:50:30;;;;;;;0.40;0.40;;;22.10;91.50;;;;;;5054565;28;20286;-67
2022/08/08 08:53:24;;;;;;;0.40;0.40;;;22.20;91.10;;;;;;5040095;28;20640;-67
2022/08/08 08:56:35;;;;;;;0.40;0.40;;;22.40;91.00;;;;;;5056220;28;20290;-67
2022/08/08 08:59:28;;;;;;;0.60;0.60;;;22.30;90.20;;;;;;5054755;28;20231;-68
2022/08/08 09:02:37;;;;;;;0.60;0.60;;;22.40;91.20;;;;;;5052289;28;20225;-68
2022/08/08 09:05:30;;;;;;;0.40;0.40;;;22.40;90.50;;;;;;5051870;28;20773;-66
2022/08/08 09:08:43;;;;;;;0.40;0.40;;;22.50;90.40;;;;;;5052463;28;20315;-66
2022/08/08 09:11:40;;;;;;;0.40;0.40;;;22.50;87.10;;;;;;5052737;28;20261;-68
2022/08/08 09:14:35;;;;;;;0.40;0.40;;;22.60;86.50;;;;;;5051375;28;20210;-68
2022/08/08 09:17:32;;;;;;;0.40;0.40;;;22.70;87.70;;;;;;5055687;28;20221;-68
2022/08/08 09:20:29;;;;;;;0.40;0.40;;;22.80;87.80;;;;;;5056470;28;20201;-68
2022/08/08 09:23:38;;;;;;;0.40;0.40;;;22.90;87.80;;;;;;5055523;28;20205;-68
2022/08/08 09:26:41;;;;;;;0.40;0.40;;;22.90;86.60;;;;;;5057972;28;20233;-67
2022/08/08 09:29:49;;;;;;;0.40;0.40;;;23.00;85.70;;;;;;5074008;28;20207;-66
2022/08/08 09:32:42;;;;;;;0.40;0.40;;;23.10;84.90;;;;;;5074352;28;20199;-67
2022/08/08 09:35:58;;;;;;;0.40;0.40;;;23.30;85.50;;;;;;5069471;28;20579;-68
2022/08/08 09:38:53;;;;;;;0.40;0.40;;;23.40;84.30;;;;;;5073435;28;20275;-67
2022/08/08 09:42:01;;;;;;;0.40;0.40;;;23.60;82.40;;;;;;5071706;28;20247;-67
2022/08/08 09:45:10;;;;;;;0.40;0.40;;;23.70;80.10;;;;;;5069475;28;20214;-68
2022/08/08 09:48:18;;;;;;;0.40;0.40;;;23.90;79.50;;;;;;5072142;28;20277;-68
2022/08/08 09:51:26;;;;;;;0.40;0.40;;;24.00;79.60;;;;;;5057446;28;20219;-68
2022/08/08 09:54:18;;;;;;;0.40;0.40;;;24.10;80.00;;;;;;5046682;28;20217;-67
2022/08/08 09:57:33;;;;;;;0.40;0.40;;;24.40;79.00;;;;;;5055673;28;20241;-67
2022/08/08 10:00:37;;;;;;;0.40;0.40;;;24.50;76.60;;;;;;5054132;28;20244;-68
2022/08/08 10:03:46;;;;;;;0.40;0.40;;;24.80;75.40;;;;;;5054612;28;20193;-68
2022/08/08 10:06:43;;;;;;;0.40;0.40;;;25.20;74.10;;;;;;5054661;28;20713;-68
2022/08/08 10:09:33;;;;;;;0.73;0.73;;;25.50;73.80;;;;;;5054285;28;20217;-68
2022/08/08 10:12:42;;;;;;;0.40;0.40;;;25.70;72.20;;;;;;5054048;28;20584;-68
2022/08/08 10:15:47;;;;;;;1.75;1.05;;;25.90;71.00;;;;;;5054301;28;20223;-68
2022/08/08 10:18:49;;;;;;;0.40;0.40;;;25.80;69.40;;;;;;5054026;28;20221;-68
2022/08/08 10:21:49;;;;;;;0.50;0.50;;;25.90;70.40;;;;;;5053999;28;20585;-68
2022/08/08 10:24:47;;;;;;;0.40;0.40;;;26.00;69.40;;;;;;5053557;28;20669;-68
2022/08/08 10:27:41;;;;;;;0.40;0.40;;;26.00;68.90;;;;;;5053839;28;20221;-67
2022/08/08 10:30:33;;;;;;;0.40;0.40;;;26.00;69.30;;;;;;5054884;28;20197;-68
2022/08/08 10:33:42;;;;;;;0.40;0.40;;;26.00;68.60;;;;;;5054582;28;20378;-67
2022/08/08 10:36:51;;;;;;;0.40;0.40;;;25.90;67.50;;;;;;5054584;28;20334;-67
2022/08/08 10:39:45;;;;;;;0.40;0.40;;;25.90;68.20;;;;;;5054392;28;20201;-67
2022/08/08 10:42:42;;;;;;;0.40;0.40;;;25.90;68.20;;;;;;5054930;28;20251;-68
2022/08/08 10:45:43;;;;;;;0.40;0.40;;;26.00;67.50;;;;;;5054350;28;20630;-69
2022/08/08 10:48:45;;;;;;;0.40;0.40;;;26.10;67.00;;;;;;5053300;28;20616;-69
2022/08/08 10:51:45;;;;;;;0.40;0.40;;;26.10;66.90;;;;;;5053034;28;20320;-69
2022/08/08 10:54:39;;;;;;;0.40;0.40;;;26.20;66.20;;;;;;5053323;28;20202;-68
2022/08/08 10:57:30;;;;;;;0.40;0.40;;;26.20;66.40;;;;;;5046932;28;20220;-67
2022/08/08 11:00:43;;;;;;;0.40;0.40;;;26.20;65.80;;;;;;5053360;28;20201;-68
2022/08/08 11:03:50;;;;;;;1.38;0.70;;;26.10;66.00;;;;;;5053665;28;20201;-68
2022/08/08 11:06:59;;;;;;;0.57;0.57;;;26.10;65.30;;;;;;5053376;28;20221;-68
2022/08/08 11:09:47;;;;;;;0.40;0.40;;;25.70;64.80;;;;;;5052542;28;20194;-68
2022/08/08 11:12:45;;;;;;;0.40;0.40;;;25.40;64.90;;;;;;5051118;28;20217;-68
2022/08/08 11:15:34;;;;;;;0.40;0.40;;;25.10;65.70;;;;;;5052098;28;20650;-68
2022/08/08 11:18:43;;;;;;;0.40;0.40;;;25.10;66.30;;;;;;5051878;28;20244;-68
2022/08/08 11:21:44;;;;;;;0.40;0.40;;;25.30;66.20;;;;;;5051973;28;20259;-68
2022/08/08 11:24:45;;;;;;;0.40;0.40;;;25.40;65.00;;;;;;5069101;28;20279;-67
2022/08/08 11:27:35;;;;;;;0.40;0.40;;;25.70;64.80;;;;;;5072574;28;20673;-68
2022/08/08 11:30:27;;;;;;;0.40;0.40;;;25.70;65.90;;;;;;5073180;28;20679;-68
2022/08/08 11:33:23;;;;;;;0.40;0.40;;;25.60;65.00;;;;;;5071182;28;20208;-68
2022/08/08 11:36:33;;;;;;;0.40;0.40;;;25.50;64.20;;;;;;5072727;28;20280;-68
2022/08/08 11:39:24;;;;;;;0.40;0.40;;;25.70;64.80;;;;;;5072466;28;20196;-67
2022/08/08 11:42:16;;;;;;;0.40;0.40;;;26.00;65.30;;;;;;5073839;28;20201;-68
2022/08/08 11:45:06;;;;;;;0.40;0.40;;;26.20;64.80;;;;;;5072857;28;20588;-68
2022/08/08 11:47:57;;;;;;;0.40;0.40;;;26.20;64.50;;;;;;5073016;28;20582;-67
2022/08/08 11:50:52;;;;;;;0.40;0.40;;;26.20;65.70;;;;;;5072748;28;20201;-68
2022/08/08 11:53:43;;;;;;;0.40;0.40;;;26.10;65.10;;;;;;5073125;28;20207;-68
2022/08/08 11:56:49;;;;;;;0.40;0.40;;;26.20;64.70;;;;;;5069065;28;20276;-68
2022/08/08 11:59:51;;;;;;;0.40;0.40;;;26.30;63.40;;;;;;5072780;28;20209;-68
2022/08/08 12:02:53;;;;;;;0.40;0.40;;;26.40;63.20;;;;;;5073398;28;20208;-69
2022/08/08 12:05:41;;;;;;;0.40;0.40;;;26.20;63.70;;;;;;5072185;28;20217;-68
2022/08/08 12:08:31;;;;;;;0.60;0.60;;;26.10;62.60;;;;;;5107692;22;20365;-67
2022/08/08 12:11:22;;;;;;;0.70;0.70;;;26.00;63.50;;;;;;5091805;28;20615;-68
2022/08/08 12:14:22;;;;;;;0.40;0.40;;;26.00;63.20;;;;;;5092716;28;20196;-68
2022/08/08 12:17:16;;;;;;;0.40;0.40;;;26.00;62.70;;;;;;5092667;28;20203;-69
2022/08/08 12:20:06;;;;;;;0.40;0.40;;;26.10;62.40;;;;;;5092781;28;20200;-68
2022/08/08 12:22:54;;;;;;;0.40;0.40;;;26.10;62.80;;;;;;5092170;28;20200;-68
2022/08/08 12:25:44;;;;;;;0.40;0.40;;;26.30;63.50;;;;;;5092153;28;20200;-68
2022/08/08 12:28:53;;;;;;;0.40;0.40;;;26.40;63.70;;;;;;5092455;28;20223;-68
2022/08/08 12:31:43;;;;;;;0.40;0.40;;;26.70;62.40;;;;;;5092601;28;20196;-68
2022/08/08 12:34:43;;;;;;;0.40;0.40;;;26.70;61.80;;;;;;5086782;28;20786;-68
2022/08/08 12:37:33;;;;;;;0.40;0.40;;;26.90;61.20;;;;;;5071919;28;20220;-68
2022/08/08 12:40:38;;;;;;;0.40;0.40;;;27.10;60.60;;;;;;5071980;28;20255;-68
2022/08/08 12:43:46;;;;;;;0.40;0.40;;;27.10;60.10;;;;;;5073503;28;20742;-68
2022/08/08 12:46:54;;;;;;;0.40;0.40;;;27.40;60.70;;;;;;5073104;28;20219;-68
2022/08/08 12:49:54;;;;;;;0.43;0.43;;;27.50;59.90;;;;;;5075942;28;20677;-68
2022/08/08 12:52:53;;;;;;;0.45;0.45;;;28.40;59.10;;;;;;5076566;28;20375;-68
2022/08/08 12:55:52;;;;;;;0.40;0.40;;;29.40;57.10;;;;;;5076097;28;20197;-68
2022/08/08 12:59:02;;;;;;;0.40;0.40;;;30.60;54.90;;;;;;5076247;28;20216;-69
2022/08/08 13:01:52;;;;;;;0.40;0.40;;;32.60;53.60;;;;;;5075824;28;20279;-69
2022/08/08 13:04:50;;;;;;;0.40;0.40;;;34.30;51.80;;;;;;5073859;28;20204;-69
2022/08/08 13:07:41;;;;;;;0.40;0.40;;;36.30;47.70;;;;;;5074450;28;20221;-69
2022/08/08 13:10:53;;;;;;;0.40;0.40;;;37.60;45.10;;;;;;5088669;28;20260;-69
2022/08/08 13:13:50;;;;;;;0.40;0.40;;;37.80;42.70;;;;;;5074038;28;20204;-68
2022/08/08 13:16:40;;;;;;;0.50;0.50;;;38.10;42.10;;;;;;5093620;28;20200;-68
2022/08/08 13:19:36;;;;;;;0.60;0.60;;;37.10;41.00;;;;;;5099189;28;20460;-68
2022/08/08 13:22:45;;;;;;;0.75;0.75;;;37.20;41.50;;;;;;5094506;28;20279;-69
2022/08/08 13:25:34;;;;;;;0.40;0.40;;;37.70;40.10;;;;;;5094019;28;20294;-69
2022/08/08 13:28:28;;;;;;;1.98;1.77;;;38.90;38.50;;;;;;5093619;28;20265;-68
2022/08/08 13:31:19;;;;;;;0.40;0.40;;;39.40;38.80;;;;;;5090235;28;20292;-68
2022/08/08 13:34:17;;;;;;;1.15;1.15;;;40.60;37.50;;;;;;5072999;28;20193;-68
2022/08/08 13:37:17;;;;;;;0.50;0.50;;;42.40;35.00;;;;;;5073173;28;20214;-68
2022/08/08 13:40:25;;;;;;;0.40;0.40;;;42.40;35.40;;;;;;5080830;28;20714;-68
2022/08/08 13:43:16;;;;;;;0.50;0.50;;;43.10;33.70;;;;;;5073042;28;20222;-68
2022/08/08 13:46:09;;;;;;;0.50;0.50;;;40.90;34.40;;;;;;5073015;28;20328;-68
2022/08/08 13:49:17;;;;;;;0.40;0.40;;;39.00;34.90;;;;;;5083351;28;20211;-69
2022/08/08 13:52:26;;;;;;;0.50;0.50;;;37.50;36.80;;;;;;5092363;28;20277;-69
2022/08/08 13:55:26;;;;;;;0.70;0.70;;;35.30;39.00;;;;;;5094751;28;20208;-69
2022/08/08 13:58:18;;;;;;;0.47;0.47;;;33.10;41.20;;;;;;5094107;28;20208;-69
2022/08/08 14:01:15;;;;;;;0.40;0.40;;;31.20;43.50;;;;;;5088785;28;20266;-69
2022/08/08 14:04:04;;;;;;;0.40;0.40;;;30.40;45.00;;;;;;5079858;28;20253;-68
2022/08/08 14:06:59;;;;;;;0.40;0.40;;;30.20;45.50;;;;;;5094536;28;20354;-69
2022/08/08 14:09:48;;;;;;;0.40;0.40;;;30.00;46.10;;;;;;5080495;28;20287;-69
2022/08/08 14:12:56;;;;;;;0.40;0.40;;;30.30;46.10;;;;;;5074454;28;20652;-69
2022/08/08 14:15:47;;;;;;;0.95;0.95;;;31.90;46.00;;;;;;5073213;28;20196;-69
2022/08/08 14:18:37;;;;;;;0.40;0.40;;;34.20;42.30;;;;;;5073536;28;20217;-69
2022/08/08 14:21:42;;;;;;;0.40;0.40;;;35.60;40.50;;;;;;5074173;28;20197;-69
2022/08/08 14:24:37;;;;;;;0.40;0.40;;;36.20;39.50;;;;;;5075586;28;20224;-70
2022/08/08 14:27:32;;;;;;;0.40;0.40;;;36.20;39.10;;;;;;5071216;28;20229;-69
2022/08/08 14:30:21;;;;;;;0.50;0.50;;;36.30;39.80;;;;;;5072998;28;20200;-70
2022/08/08 14:33:12;;;;;;;0.40;0.40;;;37.50;38.70;;;;;;5072209;28;20559;-67
2022/08/08 14:36:03;;;;;;;0.50;0.50;;;39.60;37.70;;;;;;5072353;28;20212;-69
2022/08/08 14:38:51;;;;;;;1.42;1.42;;;41.00;34.90;;;;;;5071767;28;20217;-69
2022/08/08 14:41:49;;;;;;;0.50;0.50;;;41.70;35.10;;;;;;5091292;28;20200;-69
2022/08/08 14:44:41;;;;;;;0.40;0.40;;;42.10;33.10;;;;;;5087164;28;20699;-69
2022/08/08 14:47:44;;;;;;;0.50;0.50;;;37.50;35.80;;;;;;5071619;28;20580;-72
2022/08/08 14:50:38;;;;;;;0.40;0.40;;;37.10;36.80;;;;;;5092179;28;20204;-69
2022/08/08 14:53:35;;;;;;;0.40;0.40;;;35.60;38.80;;;;;;5093808;28;20695;-69
2022/08/08 14:56:42;;;;;;;0.40;0.40;;;34.70;39.30;;;;;;5092869;28;20200;-69
2022/08/08 14:59:32;;;;;;;0.40;0.40;;;36.40;38.50;;;;;;5092432;28;20244;-69
2022/08/08 15:02:38;;;;;;;0.40;0.40;;;38.30;38.00;;;;;;5074543;28;20196;-69
2022/08/08 15:05:46;;;;;;;0.52;0.52;;;39.90;35.90;;;;;;5089452;28;20200;-69
2022/08/08 15:08:46;;;;;;;0.40;0.40;;;40.70;34.70;;;;;;5091205;28;20227;-69
2022/08/08 15:11:42;;;;;;;0.40;0.40;;;41.70;34.00;;;;;;5089823;28;20263;-69
2022/08/08 15:14:41;;;;;;;0.40;0.40;;;41.80;33.80;;;;;;5090293;28;20204;-69
2022/08/08 15:17:29;;;;;;;0.40;0.40;;;41.00;33.60;;;;;;5092466;28;20227;-66
2022/08/08 15:20:18;;;;;;;0.40;0.40;;;40.90;34.30;;;;;;5084968;28;20633;-69
2022/08/08 15:23:06;;;;;;;0.40;0.40;;;39.30;34.70;;;;;;5088689;28;20236;-69
2022/08/08 15:25:56;;;;;;;0.40;0.40;;;37.50;36.20;;;;;;5071034;28;20222;-69
2022/08/08 15:28:44;;;;;;;0.68;0.68;;;34.20;38.30;;;;;;5080306;28;20228;-69
2022/08/08 15:31:33;;;;;;;0.60;0.60;;;33.20;39.60;;;;;;5092111;28;20596;-69
2022/08/08 15:34:41;;;;;;;0.40;0.40;;;32.80;40.70;;;;;;5093308;28;20275;-69
2022/08/08 15:37:29;;;;;;;0.40;0.40;;;37.80;36.10;;;;;;5086000;28;20588;-69
2022/08/08 15:40:18;;;;;;;0.40;0.40;;;37.80;36.60;;;;;;5081825;28;20207;-68
2022/08/08 15:43:06;;;;;;;0.40;0.40;;;40.00;35.40;;;;;;5091309;28;20212;-68
2022/08/08 15:46:14;;;;;;;0.40;0.40;;;42.00;33.80;;;;;;5081229;28;20338;-69
2022/08/08 15:49:04;;;;;;;0.40;0.40;;;42.40;33.00;;;;;;5088471;28;20230;-69